createdAt,value
2023-04-17T00:01:18.584Z,100750.42
2023-04-17T00:03:47.446Z,100749.04
2023-04-17T00:06:16.453Z,100747.72
2023-04-17T00:08:44.992Z,100752.31
2023-04-17T00:11:12.952Z,100753.30
2023-04-17T00:13:44.161Z,100751.57
2023-04-17T00:16:13.678Z,100755.54
2023-04-17T00:18:42.883Z,100756.16
2023-04-17T00:21:11.059Z,100752.98
2023-04-17T00:23:39.649Z,100755.47
2023-04-17T00:26:07.648Z,100755.64
2023-04-17T00:28:35.638Z,100758.35
2023-04-17T00:31:04.604Z,100756.96
2023-04-17T00:33:32.839Z,100753.77
2023-04-17T00:36:00.840Z,100754.05
2023-04-17T00:38:29.418Z,100755.77
2023-04-17T00:40:57.412Z,100755.89
2023-04-17T00:43:25.496Z,100760.98
2023-04-17T00:45:54.028Z,100756.66
2023-04-17T00:48:24.208Z,100752.52
2023-04-17T00:50:52.178Z,100752.02
2023-04-17T00:53:20.555Z,100754.52
2023-04-17T00:55:48.598Z,100751.62
2023-04-17T00:58:16.880Z,100749.95
2023-04-17T01:00:45.435Z,100751.04
2023-04-17T01:03:14.527Z,100754.98
2023-04-17T01:05:44.754Z,100751.26
2023-04-17T01:08:12.668Z,100750.95
2023-04-17T01:10:40.821Z,100749.61
2023-04-17T01:13:09.574Z,100748.37
2023-04-17T01:15:37.958Z,100749.30
2023-04-17T01:18:06.844Z,100750.03
2023-04-17T01:20:34.928Z,100751.44
2023-04-17T01:23:02.919Z,100748.56
2023-04-17T01:25:31.409Z,100753.56
2023-04-17T01:27:59.319Z,100752.09
2023-04-17T01:30:29.244Z,100751.20
2023-04-17T01:33:03.688Z,100753.10
2023-04-17T01:35:31.663Z,100755.42
2023-04-17T01:37:59.983Z,100756.84
2023-04-17T01:40:28.752Z,100754.94
2023-04-17T01:42:57.449Z,100753.77
2023-04-17T01:45:25.344Z,100753.88
2023-04-17T01:47:53.984Z,100749.80
2023-04-17T01:50:22.370Z,100748.77
2023-04-17T01:52:50.708Z,100751.95
2023-04-17T01:55:18.700Z,100749.00
2023-04-17T01:57:47.598Z,100750.25
2023-04-17T02:00:15.943Z,100755.59
2023-04-17T02:02:44.367Z,100757.13
2023-04-17T02:05:12.420Z,100751.85
2023-04-17T02:07:40.855Z,100750.44
2023-04-17T02:10:09.609Z,100755.04
2023-04-17T02:12:38.248Z,100755.53
2023-04-17T02:15:07.148Z,100755.83
2023-04-17T02:17:35.682Z,100756.81
2023-04-17T02:20:06.949Z,100756.21
2023-04-17T02:22:35.037Z,100760.19
2023-04-17T02:25:02.962Z,100761.84
2023-04-17T02:27:31.252Z,100761.64
2023-04-17T02:29:59.154Z,100763.62
2023-04-17T02:32:27.145Z,100765.98
2023-04-17T02:34:56.251Z,100767.25
2023-04-17T02:37:24.206Z,100765.67
2023-04-17T02:39:53.996Z,100762.69
2023-04-17T02:42:21.900Z,100769.67
2023-04-17T02:44:49.799Z,100771.78
2023-04-17T02:47:17.815Z,100772.64
2023-04-17T02:49:45.908Z,100772.94
2023-04-17T02:52:14.081Z,100769.05
2023-04-17T02:54:42.253Z,100774.17
2023-04-17T02:57:11.000Z,100774.70
2023-04-17T02:59:39.051Z,100778.33
2023-04-17T03:02:07.070Z,100778.65
2023-04-17T03:04:38.760Z,100779.79
2023-04-17T03:07:10.537Z,100790.02
2023-04-17T03:09:39.839Z,100787.90
2023-04-17T03:12:07.907Z,100786.96
2023-04-17T03:14:36.011Z,100791.01
2023-04-17T03:17:03.870Z,100796.95
2023-04-17T03:19:31.936Z,100794.07
2023-04-17T03:22:01.740Z,100794.23
2023-04-17T03:24:31.716Z,100797.77
2023-04-17T03:27:01.133Z,100801.36
2023-04-17T03:29:31.430Z,100809.35
2023-04-17T03:31:59.355Z,100806.81
2023-04-17T03:34:29.131Z,100810.38
2023-04-17T03:36:59.372Z,100817.38
2023-04-17T03:39:27.409Z,100819.11
2023-04-17T03:41:56.059Z,100817.80
2023-04-17T03:44:24.050Z,100825.02
2023-04-17T03:46:51.946Z,100826.48
2023-04-17T03:49:20.088Z,100826.63
2023-04-17T03:51:49.988Z,100826.39
2023-04-17T03:54:19.604Z,100825.15
2023-04-17T03:56:47.707Z,100833.45
2023-04-17T03:59:15.833Z,100828.93
2023-04-17T04:01:47.407Z,100827.92
2023-04-17T04:04:19.355Z,100831.38
2023-04-17T04:06:49.503Z,100834.52
2023-04-17T04:09:20.356Z,100833.44
2023-04-17T04:11:48.341Z,100831.61
2023-04-17T04:14:16.784Z,100833.27
2023-04-17T04:16:47.131Z,100827.46
2023-04-17T04:19:16.327Z,100832.39
2023-04-17T04:21:45.152Z,100832.41
2023-04-17T04:24:14.486Z,100833.13
2023-04-17T04:26:43.483Z,100837.50
2023-04-17T04:29:13.964Z,100843.35
2023-04-17T04:31:51.115Z,100847.68
2023-04-17T04:34:21.771Z,100840.96
2023-04-17T04:36:52.707Z,100842.08
2023-04-17T04:39:37.978Z,100846.38
2023-04-17T04:42:10.086Z,100843.80
2023-04-17T04:45:07.906Z,100848.19
2023-04-17T04:47:36.937Z,100852.26
2023-04-17T04:50:05.776Z,100857.38
2023-04-17T04:52:33.967Z,100854.21
2023-04-17T04:55:05.905Z,100852.56
2023-04-17T04:57:34.254Z,100852.91
2023-04-17T05:00:06.433Z,100849.05
2023-04-17T05:02:40.135Z,100849.73
2023-04-17T05:05:11.166Z,100850.39
2023-04-17T05:07:40.409Z,100847.58
2023-04-17T05:10:10.980Z,100851.17
2023-04-17T05:12:42.489Z,100853.46
2023-04-17T05:15:11.392Z,100855.64
2023-04-17T05:17:40.156Z,100855.83
2023-04-17T05:20:18.937Z,100858.34
2023-04-17T05:22:52.388Z,100858.60
2023-04-17T05:25:20.835Z,100857.46
2023-04-17T05:27:48.830Z,100860.15
2023-04-17T05:30:17.834Z,100862.50
2023-04-17T05:32:48.647Z,100864.98
2023-04-17T05:35:42.573Z,100872.13
2023-04-17T05:38:10.782Z,100872.14
2023-04-17T05:40:39.025Z,100876.86
2023-04-17T05:43:08.693Z,100878.90
2023-04-17T05:45:37.119Z,100882.73
2023-04-17T05:48:08.423Z,100888.67
2023-04-17T05:50:37.539Z,100884.25
2023-04-17T05:53:06.089Z,100886.80
2023-04-17T05:55:37.736Z,100882.23
2023-04-17T05:58:16.851Z,100880.27
2023-04-17T06:00:52.554Z,100882.83
2023-04-17T06:03:21.355Z,100879.48
2023-04-17T06:05:53.251Z,100876.09
2023-04-17T06:08:23.757Z,100883.20
2023-04-17T06:10:52.628Z,100881.02
2023-04-17T06:13:21.984Z,100885.54
2023-04-17T06:15:51.588Z,100888.60
2023-04-17T06:18:19.629Z,100886.58
2023-04-17T06:20:47.686Z,100887.02
2023-04-17T06:23:16.013Z,100896.28
2023-04-17T06:25:44.338Z,100894.76
2023-04-17T06:28:13.508Z,100896.11
2023-04-17T06:30:41.516Z,100902.18
2023-04-17T06:33:10.071Z,100899.80
2023-04-17T06:35:38.369Z,100903.29
2023-04-17T06:38:22.187Z,100904.02
2023-04-17T06:40:52.153Z,100899.62
2023-04-17T06:43:20.847Z,100901.98
2023-04-17T06:45:48.989Z,100906.86
2023-04-17T06:48:17.555Z,100906.43
2023-04-17T06:50:45.906Z,100906.40
2023-04-17T06:53:14.265Z,100906.88
2023-04-17T06:55:42.221Z,100904.78
2023-04-17T06:58:10.237Z,100911.52
2023-04-17T07:00:38.180Z,100910.91
2023-04-17T07:03:06.409Z,100917.41
2023-04-17T07:05:35.751Z,100911.05
2023-04-17T07:08:03.796Z,100909.29
2023-04-17T07:10:31.970Z,100909.88
2023-04-17T07:13:00.296Z,100918.62
2023-04-17T07:15:31.701Z,100916.02
2023-04-17T07:18:00.088Z,100913.34
2023-04-17T07:20:28.292Z,100915.36
2023-04-17T07:22:56.775Z,100917.84
2023-04-17T07:25:24.922Z,100919.81
2023-04-17T07:27:53.702Z,100920.10
2023-04-17T07:30:21.646Z,100918.98
2023-04-17T07:32:49.655Z,100920.13
2023-04-17T07:35:17.663Z,100921.70
2023-04-17T07:37:45.692Z,100921.77
2023-04-17T07:40:14.730Z,100919.40
2023-04-17T07:42:42.666Z,100921.99
2023-04-17T07:45:11.647Z,100922.86
2023-04-17T07:47:39.600Z,100924.27
2023-04-17T07:50:07.964Z,100926.34
2023-04-17T07:52:36.082Z,100924.88
2023-04-17T07:55:04.373Z,100929.61
2023-04-17T07:57:33.065Z,100924.48
2023-04-17T08:00:01.119Z,100925.21
2023-04-17T08:02:29.562Z,100926.27
2023-04-17T08:04:58.467Z,100924.05
2023-04-17T08:07:27.181Z,100918.24
2023-04-17T08:09:55.600Z,100916.85
2023-04-17T08:12:23.586Z,100912.28
2023-04-17T08:14:51.671Z,100907.30
2023-04-17T08:17:23.000Z,100908.63
2023-04-17T08:19:53.718Z,100903.56
2023-04-17T08:22:24.254Z,100905.73
2023-04-17T08:24:57.509Z,100903.34
2023-04-17T08:27:25.834Z,100903.48
2023-04-17T08:29:54.011Z,100895.84
2023-04-17T08:32:22.274Z,100900.41
2023-04-17T08:34:50.251Z,100900.23
2023-04-17T08:37:18.151Z,100890.25
2023-04-17T08:39:46.098Z,100891.38
2023-04-17T08:42:18.401Z,100888.98
2023-04-17T08:44:47.061Z,100885.23
2023-04-17T08:47:20.162Z,100889.81
2023-04-17T08:49:50.601Z,100885.85
2023-04-17T08:52:18.727Z,100884.98
2023-04-17T08:54:48.884Z,100886.28
2023-04-17T08:57:18.726Z,100889.77
2023-04-17T08:59:47.030Z,100892.04
2023-04-17T09:02:15.300Z,100893.92
2023-04-17T09:04:44.632Z,100895.08
2023-04-17T09:07:13.601Z,100895.75
2023-04-17T09:09:49.156Z,100897.99
2023-04-17T09:12:18.378Z,100897.09
2023-04-17T09:14:46.405Z,100895.95
2023-04-17T09:17:17.286Z,100898.73
2023-04-17T09:20:08.969Z,100895.91
2023-04-17T09:22:37.717Z,100895.27
2023-04-17T09:25:19.534Z,100891.14
2023-04-17T09:27:47.582Z,100888.48
2023-04-17T09:30:15.821Z,100883.73
2023-04-17T09:32:44.102Z,100883.02
2023-04-17T09:35:27.816Z,100884.58
2023-04-17T09:37:58.854Z,100882.39
2023-04-17T09:40:28.709Z,100885.52
2023-04-17T09:43:09.451Z,100876.27
2023-04-17T09:45:41.798Z,100876.17
2023-04-17T09:48:12.278Z,100873.06
2023-04-17T09:50:40.308Z,100871.86
2023-04-17T09:53:08.355Z,100863.08
2023-04-17T09:55:38.155Z,100865.46
2023-04-17T09:58:07.559Z,100864.66
2023-04-17T10:00:36.899Z,100858.39
2023-04-17T10:03:05.110Z,100859.76
2023-04-17T10:05:33.392Z,100865.77
2023-04-17T10:08:01.508Z,100870.86
2023-04-17T10:10:33.962Z,100866.36
2023-04-17T10:13:03.761Z,100860.73
2023-04-17T10:15:31.777Z,100859.22
2023-04-17T10:18:20.650Z,100859.02
2023-04-17T10:20:49.649Z,100853.55
2023-04-17T10:23:26.420Z,100849.77
2023-04-17T10:26:25.617Z,100851.38
2023-04-17T10:28:54.384Z,100846.06
2023-04-17T10:31:23.724Z,100846.27
2023-04-17T10:33:55.136Z,100843.13
2023-04-17T10:36:38.248Z,100834.44
2023-04-17T10:39:13.170Z,100835.36
2023-04-17T10:42:02.062Z,100833.59
2023-04-17T10:44:34.568Z,100835.85
2023-04-17T10:47:10.036Z,100828.44
2023-04-17T10:49:52.098Z,100832.80
2023-04-17T10:52:41.870Z,100832.00
2023-04-17T10:55:16.081Z,100830.45
2023-04-17T10:57:56.488Z,100827.03
2023-04-17T11:00:38.126Z,100828.20
2023-04-17T11:03:06.721Z,100827.11
2023-04-17T11:05:36.039Z,100831.28
2023-04-17T11:08:04.874Z,100827.85
2023-04-17T11:10:35.772Z,100825.95
2023-04-17T11:13:03.757Z,100823.63
2023-04-17T11:15:34.441Z,100822.70
2023-04-17T11:18:03.082Z,100820.63
2023-04-17T11:20:32.366Z,100816.32
2023-04-17T11:23:04.172Z,100814.70
2023-04-17T11:25:34.392Z,100810.63
2023-04-17T11:28:05.335Z,100807.75
2023-04-17T11:30:38.191Z,100798.99
2023-04-17T11:33:08.038Z,100802.18
2023-04-17T11:38:47.359Z,100804.48
2023-04-17T11:41:15.751Z,100796.42
2023-04-17T11:43:44.553Z,100790.50
2023-04-17T11:46:12.502Z,100785.54
2023-04-17T11:48:40.939Z,100789.72
2023-04-17T11:51:09.166Z,100788.26
2023-04-17T11:53:37.245Z,100784.20
2023-04-17T11:56:18.362Z,100785.60
2023-04-17T11:58:49.246Z,100778.13
2023-04-17T12:01:18.075Z,100773.17
2023-04-17T12:03:47.904Z,100773.42
2023-04-17T12:06:16.330Z,100765.95
2023-04-17T12:08:50.281Z,100765.08
2023-04-17T12:11:32.752Z,100763.93
2023-04-17T12:14:02.432Z,100763.11
2023-04-17T12:16:31.560Z,100768.55
2023-04-17T12:18:59.596Z,100769.56
2023-04-17T12:21:27.517Z,100768.30
2023-04-17T12:23:55.584Z,100768.92
2023-04-17T12:26:25.285Z,100763.50
2023-04-17T12:28:53.226Z,100765.30
2023-04-17T12:31:21.189Z,100764.82
2023-04-17T12:33:49.151Z,100765.27
2023-04-17T12:36:17.067Z,100762.99
2023-04-17T12:38:45.225Z,100759.19
2023-04-17T12:41:13.147Z,100757.73
2023-04-17T12:43:41.025Z,100763.29
2023-04-17T12:46:08.984Z,100761.86
2023-04-17T12:48:37.782Z,100756.23
2023-04-17T12:51:06.095Z,100754.39
2023-04-17T12:53:34.173Z,100759.33
2023-04-17T12:56:02.175Z,100760.36
2023-04-17T12:58:30.370Z,100754.70
2023-04-17T13:00:58.260Z,100751.50
2023-04-17T13:03:26.642Z,100748.74
2023-04-17T13:05:54.754Z,100748.70
2023-04-17T13:08:22.644Z,100754.17
2023-04-17T13:10:51.608Z,100750.55
2023-04-17T13:13:19.842Z,100754.06
2023-04-17T13:15:48.573Z,100751.66
2023-04-17T13:18:16.568Z,100746.17
2023-04-17T13:20:44.680Z,100745.70
2023-04-17T13:23:14.419Z,100744.16
2023-04-17T13:25:42.480Z,100746.18
2023-04-17T13:28:12.142Z,100746.55
2023-04-17T13:30:40.131Z,100745.92
2023-04-17T13:33:08.616Z,100743.14
2023-04-17T13:35:36.822Z,100748.88
2023-04-17T13:38:04.717Z,100743.38
2023-04-17T13:40:32.628Z,100746.73
2023-04-17T13:43:00.577Z,100751.39
2023-04-17T13:45:28.610Z,100748.51
2023-04-17T13:47:56.551Z,100751.08
2023-04-17T13:50:24.524Z,100744.44
2023-04-17T13:52:52.457Z,100745.39
2023-04-17T13:55:20.635Z,100740.58
2023-04-17T13:57:48.784Z,100741.91
2023-04-17T14:00:18.431Z,100742.13
2023-04-17T14:02:46.576Z,100746.10
2023-04-17T14:05:14.739Z,100743.15
2023-04-17T14:07:44.414Z,100740.59
2023-04-17T14:10:12.455Z,100740.72
2023-04-17T14:12:41.127Z,100738.91
2023-04-17T14:15:09.673Z,100735.50
2023-04-17T14:17:41.055Z,100737.94
2023-04-17T14:20:10.799Z,100735.27
2023-04-17T14:22:39.124Z,100733.75
2023-04-17T14:25:07.326Z,100732.92
2023-04-17T14:27:36.353Z,100735.94
2023-04-17T14:30:04.851Z,100734.16
2023-04-17T14:32:33.572Z,100729.55
2023-04-17T14:35:01.763Z,100727.20
2023-04-17T14:37:29.993Z,100727.04
2023-04-17T14:39:57.931Z,100728.70
2023-04-17T14:42:25.932Z,100726.84
2023-04-17T14:44:53.839Z,100722.13
2023-04-17T14:47:22.005Z,100718.16
2023-04-17T14:49:49.992Z,100717.23
2023-04-17T14:52:17.949Z,100719.55
2023-04-17T14:54:45.831Z,100716.09
2023-04-17T14:57:13.741Z,100714.53
2023-04-17T14:59:41.839Z,100713.88
2023-04-17T15:02:10.646Z,100710.96
2023-04-17T15:04:39.051Z,100707.13
2023-04-17T15:07:06.895Z,100709.73
2023-04-17T15:09:34.914Z,100708.28
2023-04-17T15:12:03.105Z,100702.52
2023-04-17T15:14:31.627Z,100701.20
2023-04-17T15:17:02.441Z,100700.08
2023-04-17T15:19:30.635Z,100698.88
2023-04-17T15:21:58.563Z,100697.40
2023-04-17T15:24:26.688Z,100692.39
2023-04-17T15:26:54.885Z,100694.77
2023-04-17T15:29:23.197Z,100690.36
2023-04-17T15:31:52.766Z,100693.90
2023-04-17T15:34:20.856Z,100694.92
2023-04-17T15:36:48.964Z,100697.65
2023-04-17T15:39:17.376Z,100695.04
2023-04-17T15:41:45.624Z,100700.88
2023-04-17T15:44:13.699Z,100698.20
2023-04-17T15:46:41.686Z,100702.34
2023-04-17T15:49:09.695Z,100702.48
2023-04-17T15:51:39.035Z,100697.33
2023-04-17T15:54:11.967Z,100702.74
2023-04-17T15:56:40.284Z,100709.23
2023-04-17T15:59:08.280Z,100704.69
2023-04-17T16:01:36.349Z,100710.13
2023-04-17T16:04:04.461Z,100710.22
2023-04-17T16:06:32.695Z,100712.58
2023-04-17T16:09:01.194Z,100709.30
2023-04-17T16:11:29.329Z,100708.77
2023-04-17T16:13:57.386Z,100709.69
2023-04-17T16:16:25.511Z,100709.59
2023-04-17T16:18:53.478Z,100712.38
2023-04-17T16:21:21.332Z,100715.16
2023-04-17T16:23:49.705Z,100715.52
2023-04-17T16:26:17.686Z,100715.58
2023-04-17T16:28:46.497Z,100717.95
2023-04-17T16:31:16.906Z,100720.01
2023-04-17T16:33:45.423Z,100716.09
2023-04-17T16:36:13.356Z,100718.45
2023-04-17T16:38:41.312Z,100719.00
2023-04-17T16:41:09.658Z,100719.34
2023-04-17T16:43:37.642Z,100723.55
2023-04-17T16:46:18.439Z,100722.49
2023-04-17T16:48:50.963Z,100724.09
2023-04-17T16:51:23.882Z,100721.77
2023-04-17T16:53:51.917Z,100719.22
2023-04-17T16:56:19.865Z,100720.60
2023-04-17T16:58:47.713Z,100721.61
2023-04-17T17:01:15.734Z,100724.21
2023-04-17T17:03:44.956Z,100718.45
2023-04-17T17:06:13.142Z,100723.36
2023-04-17T17:08:47.633Z,100721.67
2023-04-17T17:11:16.612Z,100724.09
2023-04-17T17:13:48.720Z,100726.35
2023-04-17T17:16:17.048Z,100727.32
2023-04-17T17:18:45.620Z,100725.14
2023-04-17T17:21:14.128Z,100732.17
2023-04-17T17:23:42.173Z,100731.76
2023-04-17T17:26:10.058Z,100728.14
2023-04-17T17:28:38.395Z,100724.29
2023-04-17T17:31:10.918Z,100726.10
2023-04-17T17:33:38.826Z,100721.32
2023-04-17T17:36:08.961Z,100720.82
2023-04-17T17:38:36.864Z,100721.44
2023-04-17T17:41:04.935Z,100725.68
2023-04-17T17:43:33.471Z,100722.63
2023-04-17T17:46:01.798Z,100722.89
2023-04-17T17:48:29.983Z,100724.63
2023-04-17T17:50:58.051Z,100722.91
2023-04-17T17:53:27.207Z,100724.27
2023-04-17T17:55:55.845Z,100723.81
2023-04-17T17:58:23.860Z,100720.69
2023-04-17T18:00:51.823Z,100719.80
2023-04-17T18:03:20.783Z,100721.23
2023-04-17T18:05:48.996Z,100719.88
2023-04-17T18:08:17.122Z,100721.08
2023-04-17T18:10:45.004Z,100721.31
2023-04-17T18:13:12.928Z,100720.51
2023-04-17T18:15:40.998Z,100723.81
2023-04-17T18:18:09.190Z,100720.73
2023-04-17T18:20:39.154Z,100719.81
2023-04-17T18:23:07.302Z,100720.15
2023-04-17T18:25:39.254Z,100719.61
2023-04-17T18:28:07.576Z,100718.77
2023-04-17T18:30:36.579Z,100713.72
2023-04-17T18:33:05.041Z,100710.35
2023-04-17T18:35:33.014Z,100714.59
2023-04-17T18:38:01.138Z,100718.02
2023-04-17T18:40:30.726Z,100710.91
2023-04-17T18:42:58.671Z,100714.11
2023-04-17T18:45:27.984Z,100714.12
2023-04-17T18:47:56.189Z,100712.15
2023-04-17T18:50:26.933Z,100709.50
2023-04-17T18:52:57.260Z,100706.73
2023-04-17T18:55:25.373Z,100708.15
2023-04-17T18:57:53.572Z,100708.61
2023-04-17T19:00:21.697Z,100700.34
2023-04-17T19:02:50.133Z,100701.28
2023-04-17T19:05:20.573Z,100696.47
2023-04-17T19:07:49.141Z,100694.33
2023-04-17T19:10:17.502Z,100691.41
2023-04-17T19:12:46.806Z,100689.72
2023-04-17T19:15:17.551Z,100687.52
2023-04-17T19:17:45.787Z,100691.34
2023-04-17T19:20:15.852Z,100695.89
2023-04-17T19:22:43.816Z,100687.74
2023-04-17T19:25:12.016Z,100689.39
2023-04-17T19:27:40.394Z,100687.45
2023-04-17T19:30:09.207Z,100685.75
2023-04-17T19:32:40.131Z,100680.85
2023-04-17T19:35:08.615Z,100681.80
2023-04-17T19:37:36.710Z,100676.12
2023-04-17T19:40:14.116Z,100676.81
2023-04-17T19:42:49.774Z,100677.38
2023-04-17T19:45:17.956Z,100677.00
2023-04-17T19:47:46.212Z,100678.00
2023-04-17T19:50:14.258Z,100677.92
2023-04-17T19:52:43.359Z,100674.48
2023-04-17T19:55:11.527Z,100671.77
2023-04-17T19:57:41.620Z,100678.20
2023-04-17T20:00:10.829Z,100671.48
2023-04-17T20:02:41.956Z,100675.77
2023-04-17T20:05:10.534Z,100671.82
2023-04-17T20:07:39.084Z,100670.77
2023-04-17T20:10:07.799Z,100668.23
2023-04-17T20:12:36.157Z,100663.70
2023-04-17T20:15:04.431Z,100662.04
2023-04-17T20:17:32.512Z,100661.10
2023-04-17T20:20:00.507Z,100660.40
2023-04-17T20:22:28.380Z,100657.90
2023-04-17T20:24:58.221Z,100654.15
2023-04-17T20:27:26.612Z,100656.73
2023-04-17T20:29:54.595Z,100650.70
2023-04-17T20:32:23.288Z,100647.80
2023-04-17T20:34:51.285Z,100652.23
2023-04-17T20:37:19.920Z,100647.19
2023-04-17T20:39:48.877Z,100644.44
2023-04-17T20:42:16.917Z,100644.31
2023-04-17T20:44:44.819Z,100639.98
2023-04-17T20:47:12.717Z,100639.89
2023-04-17T20:49:40.718Z,100637.44
2023-04-17T20:52:08.682Z,100633.02
2023-04-17T20:54:37.282Z,100636.88
2023-04-17T20:57:05.389Z,100633.04
2023-04-17T20:59:33.463Z,100636.00
2023-04-17T21:02:01.472Z,100630.47
2023-04-17T21:04:29.603Z,100628.73
2023-04-17T21:06:57.730Z,100626.80
2023-04-17T21:09:27.835Z,100626.70
2023-04-17T21:11:55.795Z,100627.01
2023-04-17T21:14:23.737Z,100624.76
2023-04-17T21:16:54.517Z,100624.91
2023-04-17T21:19:24.325Z,100625.73
2023-04-17T21:21:55.696Z,100625.69
2023-04-17T21:24:24.082Z,100627.23
2023-04-17T21:26:58.264Z,100621.59
2023-04-17T21:29:27.437Z,100618.85
2023-04-17T21:31:55.792Z,100618.75
2023-04-17T21:34:24.448Z,100615.27
2023-04-17T21:36:54.887Z,100612.06
2023-04-17T21:39:22.868Z,100612.28
2023-04-17T21:41:50.793Z,100610.73
2023-04-17T21:44:18.928Z,100616.01
2023-04-17T21:46:46.971Z,100613.09
2023-04-17T21:49:14.983Z,100612.44
2023-04-17T21:51:42.932Z,100611.73
2023-04-17T21:54:11.135Z,100611.35
2023-04-17T21:56:39.162Z,100613.98
2023-04-17T21:59:07.256Z,100610.27
2023-04-17T22:01:35.230Z,100608.90
2023-04-17T22:04:03.260Z,100609.48
2023-04-17T22:06:35.295Z,100608.38
2023-04-17T22:09:04.289Z,100607.33
2023-04-17T22:11:32.521Z,100604.42
2023-04-17T22:14:00.870Z,100606.96
2023-04-17T22:16:29.295Z,100606.80
2023-04-17T22:18:57.260Z,100604.14
2023-04-17T22:21:27.069Z,100602.95
2023-04-17T22:23:55.063Z,100596.35
2023-04-17T22:26:22.950Z,100594.55
2023-04-17T22:28:50.855Z,100596.37
2023-04-17T22:31:18.802Z,100595.71
2023-04-17T22:33:46.767Z,100591.73
2023-04-17T22:36:14.746Z,100591.52
2023-04-17T22:38:42.779Z,100588.35
2023-04-17T22:41:10.955Z,100590.46
2023-04-17T22:43:39.117Z,100588.27
2023-04-17T22:46:07.079Z,100585.73
2023-04-17T22:48:35.362Z,100587.73
2023-04-17T22:51:03.814Z,100583.55
2023-04-17T22:53:32.047Z,100581.09
2023-04-17T22:56:03.773Z,100580.10
2023-04-17T22:58:33.496Z,100579.22
2023-04-17T23:01:01.521Z,100573.66
2023-04-17T23:03:29.933Z,100572.38
2023-04-17T23:05:57.866Z,100572.60
2023-04-17T23:08:25.944Z,100564.41
2023-04-17T23:10:58.789Z,100569.16
2023-04-17T23:13:27.714Z,100567.23
2023-04-17T23:15:55.720Z,100568.70
2023-04-17T23:18:23.742Z,100566.88
2023-04-17T23:20:51.640Z,100564.09
2023-04-17T23:23:23.631Z,100564.04
2023-04-17T23:25:52.221Z,100562.44
2023-04-17T23:28:20.623Z,100559.80
2023-04-17T23:30:48.612Z,100562.95
2023-04-17T23:33:17.012Z,100561.88
2023-04-17T23:35:45.087Z,100557.68
2023-04-17T23:38:12.965Z,100561.58
2023-04-17T23:40:41.588Z,100556.69
2023-04-17T23:43:09.544Z,100561.00
2023-04-17T23:45:37.551Z,100561.34
2023-04-17T23:48:06.337Z,100559.92
2023-04-17T23:50:34.412Z,100561.66
2023-04-17T23:55:17.769Z,100561.34
2023-04-17T23:57:45.952Z,100553.27
